Time;durP1;ratioP1;P1;durP2;ratioP2;P2;SDS_P1;SDS_P2;PMS_P1;PMS_P2;Temp;Humidity;BMP_temperature;BMP_pressure;BME280_temperature;BME280_humidity;BME280_pressure;Samples;Min_cycle;Max_cycle;Signal;HPM_P1;HPM_P2
2023/08/30 00:01:41;;;;;;;3.43;3.13;;;13.20;99.90;;;;;;5043608;28;20241;-89
2023/08/30 00:04:08;;;;;;;3.50;3.20;;;13.20;99.90;;;;;;5033152;28;20689;-88
2023/08/30 00:06:34;;;;;;;3.97;3.57;;;13.10;99.90;;;;;;5032319;28;20198;-88
2023/08/30 00:09:02;;;;;;;3.83;2.97;;;13.00;99.90;;;;;;5032529;28;20223;-89
2023/08/30 00:11:30;;;;;;;3.13;2.93;;;12.90;99.90;;;;;;5032160;28;20291;-88
2023/08/30 00:14:05;;;;;;;5.17;3.00;;;13.00;99.90;;;;;;5022665;28;20210;-88
2023/08/30 00:16:32;;;;;;;3.30;3.07;;;12.90;99.90;;;;;;5036173;28;20207;-89
2023/08/30 00:19:02;;;;;;;4.77;3.43;;;12.70;99.90;;;;;;5036016;28;20228;-89
2023/08/30 00:21:29;;;;;;;3.67;3.10;;;12.70;99.90;;;;;;5036336;28;20286;-89
2023/08/30 00:23:56;;;;;;;4.27;3.20;;;12.80;99.90;;;;;;5035832;28;20231;-89
2023/08/30 00:26:24;;;;;;;4.03;3.50;;;12.90;99.90;;;;;;5036337;28;20200;-88
2023/08/30 00:28:51;;;;;;;3.90;3.50;;;12.80;99.90;;;;;;5035818;28;20229;-88
2023/08/30 00:31:19;;;;;;;4.13;3.73;;;12.80;99.90;;;;;;5046250;28;20238;-88
2023/08/30 00:33:51;;;;;;;4.00;3.50;;;12.70;99.90;;;;;;5046102;28;20283;-88
2023/08/30 00:36:18;;;;;;;5.07;4.13;;;12.60;99.90;;;;;;5035604;28;20283;-90
2023/08/30 00:38:45;;;;;;;3.73;3.40;;;12.70;99.90;;;;;;5038886;28;20224;-88
2023/08/30 00:41:12;;;;;;;4.17;3.77;;;12.70;99.90;;;;;;5035728;28;20199;-88
2023/08/30 00:43:43;;;;;;;4.90;4.10;;;12.80;99.90;;;;;;5019589;28;20207;-89
2023/08/30 00:46:10;;;;;;;4.43;3.60;;;12.90;99.90;;;;;;5036211;28;20195;-88
2023/08/30 00:48:42;;;;;;;5.23;3.97;;;12.90;99.90;;;;;;5035409;28;20342;-88
2023/08/30 00:51:10;;;;;;;5.17;3.90;;;12.90;99.90;;;;;;5043901;28;20298;-88
2023/08/30 00:53:38;;;;;;;5.63;4.33;;;12.90;99.90;;;;;;5048237;28;20206;-88
2023/08/30 00:56:06;;;;;;;4.53;3.73;;;12.60;99.90;;;;;;5055651;28;20562;-89
2023/08/30 00:58:36;;;;;;;4.50;3.80;;;12.60;99.90;;;;;;5039381;28;20282;-89
2023/08/30 01:01:04;;;;;;;5.80;3.40;;;12.60;99.90;;;;;;5034870;28;20580;-88
2023/08/30 01:03:31;;;;;;;7.17;4.10;;;12.60;99.90;;;;;;5024560;28;20200;-88
2023/08/30 01:06:02;;;;;;;5.50;3.53;;;12.70;99.90;;;;;;5025206;28;20215;-89
2023/08/30 01:08:30;;;;;;;4.20;3.80;;;12.60;99.90;;;;;;5035184;28;20257;-88
2023/08/30 01:11:03;;;;;;;5.80;3.90;;;12.60;99.90;;;;;;5035348;28;20203;-89
2023/08/30 01:13:34;;;;;;;4.10;3.70;;;12.60;99.90;;;;;;5035679;28;20296;-89
2023/08/30 01:16:06;;;;;;;4.00;3.60;;;12.50;99.90;;;;;;5034886;28;20227;-89
2023/08/30 01:18:37;;;;;;;4.10;3.70;;;12.40;99.90;;;;;;5035055;28;20547;-89
2023/08/30 01:21:10;;;;;;;4.23;3.83;;;12.60;99.90;;;;;;5035339;28;20195;-89
2023/08/30 01:23:48;;;;;;;4.13;3.70;;;12.60;99.90;;;;;;5035635;28;20218;-89
2023/08/30 01:26:25;;;;;;;6.87;3.40;;;12.60;99.90;;;;;;5035152;28;20231;-89
2023/08/30 01:28:55;;;;;;;4.00;3.70;;;12.50;99.90;;;;;;5035344;28;20573;-88
2023/08/30 01:31:29;;;;;;;4.00;3.60;;;12.50;99.90;;;;;;5044865;28;20199;-89
2023/08/30 01:34:05;;;;;;;4.33;3.57;;;12.40;99.90;;;;;;5037666;28;20203;-89
2023/08/30 01:36:33;;;;;;;4.10;3.70;;;12.40;99.90;;;;;;5034840;28;20252;-89
2023/08/30 01:39:04;;;;;;;5.80;3.87;;;12.50;99.90;;;;;;5034437;28;20277;-89
2023/08/30 01:41:36;;;;;;;3.67;3.33;;;12.40;99.90;;;;;;5034401;28;20218;-89
2023/08/30 01:44:07;;;;;;;3.90;3.60;;;12.30;99.90;;;;;;5034734;28;20557;-89
2023/08/30 01:46:35;;;;;;;4.53;3.57;;;12.40;99.90;;;;;;5035056;28;20230;-89
2023/08/30 01:49:07;;;;;;;5.87;4.13;;;12.40;99.90;;;;;;5034291;28;20310;-88
2023/08/30 01:51:34;;;;;;;4.23;3.83;;;12.30;99.90;;;;;;5034832;28;20266;-89
2023/08/30 01:54:03;;;;;;;4.60;3.70;;;12.30;99.90;;;;;;5033761;28;20204;-89
2023/08/30 01:56:31;;;;;;;7.00;4.00;;;12.40;99.90;;;;;;5034548;28;20706;-89
2023/08/30 01:59:00;;;;;;;6.93;4.00;;;12.40;99.90;;;;;;5034107;28;20226;-88
2023/08/30 02:01:28;;;;;;;7.10;4.30;;;12.50;99.90;;;;;;5034650;28;20242;-89
2023/08/30 02:03:55;;;;;;;4.23;3.83;;;12.40;99.90;;;;;;5033561;28;20259;-89
2023/08/30 02:06:28;;;;;;;5.23;4.43;;;12.50;99.90;;;;;;5034213;28;20637;-89
2023/08/30 02:09:03;;;;;;;4.67;4.00;;;12.30;99.90;;;;;;5040878;28;20226;-89
2023/08/30 02:11:33;;;;;;;4.60;4.20;;;12.20;99.90;;;;;;5040495;28;20212;-89
2023/08/30 02:14:04;;;;;;;4.70;4.07;;;12.20;99.90;;;;;;5034195;28;20665;-90
2023/08/30 02:16:34;;;;;;;5.50;3.90;;;12.20;99.90;;;;;;5033328;28;20227;-89
2023/08/30 02:19:01;;;;;;;15.70;4.60;;;12.20;99.90;;;;;;5034073;28;20212;-89
2023/08/30 02:21:28;;;;;;;5.10;4.20;;;12.10;99.90;;;;;;5033982;28;20641;-89
2023/08/30 02:23:58;;;;;;;6.03;3.90;;;12.10;99.90;;;;;;5032899;28;20214;-88
2023/08/30 02:26:25;;;;;;;4.83;4.30;;;12.20;99.90;;;;;;5030130;28;20250;-89
2023/08/30 02:28:52;;;;;;;5.70;4.60;;;12.10;99.90;;;;;;5025577;28;20232;-88
2023/08/30 02:31:19;;;;;;;6.50;4.30;;;12.00;99.90;;;;;;5031265;28;20559;-89
2023/08/30 02:33:49;;;;;;;4.57;4.10;;;12.00;99.90;;;;;;5028455;28;20212;-89
2023/08/30 02:36:16;;;;;;;6.50;4.20;;;12.10;99.90;;;;;;5026703;28;20208;-88
2023/08/30 02:38:43;;;;;;;6.30;5.20;;;12.00;99.90;;;;;;5026056;28;20238;-89
2023/08/30 02:41:12;;;;;;;7.10;4.80;;;11.90;99.90;;;;;;5045328;28;20219;-88
2023/08/30 02:43:39;;;;;;;4.93;4.43;;;11.90;99.90;;;;;;5033453;28;20289;-88
2023/08/30 02:46:06;;;;;;;5.53;4.23;;;12.10;99.90;;;;;;5033494;28;20286;-88
2023/08/30 02:48:33;;;;;;;4.80;4.07;;;11.80;99.90;;;;;;5033618;28;20286;-88
2023/08/30 02:51:02;;;;;;;4.53;4.07;;;11.90;99.90;;;;;;5033416;28;20215;-88
2023/08/30 02:53:28;;;;;;;6.77;4.80;;;11.80;99.90;;;;;;5032349;28;20208;-87
2023/08/30 02:55:56;;;;;;;4.40;4.00;;;11.80;99.90;;;;;;5032930;28;20207;-88
2023/08/30 02:58:26;;;;;;;4.83;4.30;;;11.90;99.90;;;;;;5032817;28;20566;-88
2023/08/30 03:01:14;;;;;;;4.40;4.00;;;11.70;99.90;;;;;;5033393;28;20562;-89
2023/08/30 03:03:41;;;;;;;5.10;4.03;;;11.70;99.90;;;;;;5028734;28;20708;-90
2023/08/30 03:06:15;;;;;;;4.60;4.07;;;11.60;99.90;;;;;;5034331;28;20272;-91
2023/08/30 03:08:42;;;;;;;6.20;3.93;;;11.60;99.90;;;;;;5028558;28;20302;-89
2023/08/30 03:11:09;;;;;;;5.70;4.23;;;11.60;99.90;;;;;;5033288;28;20310;-89
2023/08/30 03:13:37;;;;;;;5.37;4.00;;;11.60;99.90;;;;;;5033727;28;20197;-91
2023/08/30 03:16:18;;;;;;;5.93;3.90;;;11.60;99.90;;;;;;5033885;28;20203;-90
2023/08/30 03:18:48;;;;;;;4.47;4.07;;;11.40;99.90;;;;;;5034004;28;20604;-90
2023/08/30 03:21:16;;;;;;;4.00;3.70;;;11.00;99.90;;;;;;5030392;28;20284;-90
2023/08/30 03:23:43;;;;;;;5.00;4.07;;;11.00;99.90;;;;;;5038370;28;20262;-89
2023/08/30 03:26:10;;;;;;;6.30;5.30;;;11.00;99.90;;;;;;5041689;28;20230;-89
2023/08/30 03:28:37;;;;;;;6.13;4.47;;;11.10;99.90;;;;;;5054814;28;20229;-90
2023/08/30 03:31:13;;;;;;;7.80;7.03;;;11.30;99.90;;;;;;5038951;28;20232;-90
2023/08/30 03:33:47;;;;;;;5.37;4.33;;;11.20;99.90;;;;;;5033271;28;20294;-89
2023/08/30 03:36:17;;;;;;;5.87;4.17;;;11.20;99.90;;;;;;5032895;28;20776;-89
2023/08/30 03:38:44;;;;;;;8.37;4.30;;;10.90;99.90;;;;;;5033514;28;20231;-90
2023/08/30 03:41:12;;;;;;;4.47;3.80;;;10.80;99.90;;;;;;5033680;28;20596;-89
2023/08/30 03:43:42;;;;;;;6.53;4.77;;;10.80;99.90;;;;;;5033381;28;20214;-90
2023/08/30 03:46:11;;;;;;;8.00;4.83;;;10.70;99.90;;;;;;5033598;28;20258;-90
2023/08/30 03:48:43;;;;;;;6.10;4.53;;;10.80;99.90;;;;;;5035012;28;20227;-89
2023/08/30 03:51:11;;;;;;;4.77;4.37;;;11.00;99.90;;;;;;5037201;28;20206;-90
2023/08/30 03:53:44;;;;;;;4.60;4.20;;;11.00;99.90;;;;;;5037277;28;20570;-89
2023/08/30 03:56:11;;;;;;;5.87;4.33;;;11.10;99.90;;;;;;5036939;28;20204;-90
2023/08/30 03:58:38;;;;;;;5.37;4.50;;;11.20;99.90;;;;;;5037295;28;20302;-90
2023/08/30 04:01:09;;;;;;;5.67;4.40;;;10.80;99.90;;;;;;5037160;28;20311;-90
2023/08/30 04:03:36;;;;;;;4.47;4.07;;;10.60;99.90;;;;;;5036550;28;20227;-90
2023/08/30 04:06:03;;;;;;;6.33;4.73;;;11.00;99.90;;;;;;5037485;28;20211;-90
2023/08/30 04:08:32;;;;;;;7.53;4.70;;;10.80;99.90;;;;;;5036898;28;20282;-90
2023/08/30 04:11:03;;;;;;;5.33;4.77;;;10.80;99.90;;;;;;5036818;28;20261;-90
2023/08/30 04:13:31;;;;;;;5.20;4.70;;;11.00;99.90;;;;;;5036505;28;20760;-90
2023/08/30 04:16:00;;;;;;;4.87;4.23;;;10.80;99.90;;;;;;5036854;28;20290;-90
2023/08/30 04:18:31;;;;;;;6.90;5.00;;;10.90;99.90;;;;;;5037118;28;20227;-90
2023/08/30 04:21:02;;;;;;;5.23;4.73;;;10.80;99.90;;;;;;5036279;28;20231;-89
2023/08/30 04:23:29;;;;;;;4.60;4.20;;;10.90;99.90;;;;;;5035816;28;20208;-89
2023/08/30 04:25:56;;;;;;;7.40;4.77;;;10.90;99.90;;;;;;5030238;28;20242;-90
2023/08/30 04:28:29;;;;;;;5.57;4.90;;;10.90;99.90;;;;;;5035769;28;20282;-89
2023/08/30 04:31:13;;;;;;;6.13;5.00;;;11.00;99.90;;;;;;5035804;28;20226;-90
2023/08/30 04:33:52;;;;;;;6.27;4.80;;;11.00;99.90;;;;;;5039261;28;20200;-90
2023/08/30 04:36:24;;;;;;;6.43;5.40;;;11.20;99.90;;;;;;5035570;28;20215;-89
2023/08/30 04:38:54;;;;;;;5.67;5.07;;;11.20;99.90;;;;;;5047052;28;20230;-90
2023/08/30 04:41:22;;;;;;;6.43;5.33;;;11.10;99.90;;;;;;5054653;28;20213;-90
2023/08/30 04:44:06;;;;;;;6.10;5.50;;;11.10;99.90;;;;;;5055828;28;20215;-90
2023/08/30 04:46:36;;;;;;;5.17;4.60;;;10.80;99.90;;;;;;5056221;28;20207;-90
2023/08/30 04:49:06;;;;;;;6.73;5.20;;;10.70;99.90;;;;;;5055949;28;20305;-90
2023/08/30 04:51:36;;;;;;;6.17;5.40;;;10.90;99.90;;;;;;5041420;28;20232;-90
2023/08/30 04:54:05;;;;;;;6.60;5.10;;;11.10;99.90;;;;;;5036076;28;20208;-89
2023/08/30 04:56:33;;;;;;;6.10;4.90;;;11.40;99.90;;;;;;5034454;28;20233;-90
2023/08/30 04:59:03;;;;;;;6.73;5.17;;;11.50;99.90;;;;;;5034950;28;20238;-90
2023/08/30 05:01:30;;;;;;;5.57;4.80;;;11.70;99.90;;;;;;5051284;28;20243;-90
2023/08/30 05:03:59;;;;;;;6.00;4.80;;;11.70;99.90;;;;;;5047903;28;20207;-90
2023/08/30 05:06:27;;;;;;;5.27;4.40;;;12.00;99.90;;;;;;5055704;28;20241;-90
2023/08/30 05:08:59;;;;;;;7.00;5.30;;;11.90;99.90;;;;;;5051906;28;20239;-90
2023/08/30 05:11:26;;;;;;;5.57;4.60;;;12.00;99.90;;;;;;5035355;28;20632;-90
2023/08/30 05:13:55;;;;;;;5.40;4.87;;;12.00;99.90;;;;;;5035800;28;20643;-90
2023/08/30 05:16:23;;;;;;;6.83;5.40;;;12.30;99.90;;;;;;5035969;28;20265;-90
2023/08/30 05:18:50;;;;;;;5.40;4.90;;;12.40;99.90;;;;;;5035462;28;20306;-89
2023/08/30 05:21:19;;;;;;;6.60;4.73;;;12.50;99.90;;;;;;5035710;28;20700;-90
2023/08/30 05:23:59;;;;;;;5.73;4.93;;;12.70;99.90;;;;;;5037121;28;20218;-90
2023/08/30 05:26:32;;;;;;;6.17;5.10;;;12.70;99.90;;;;;;5055111;28;20282;-91
2023/08/30 05:29:01;;;;;;;5.33;4.83;;;12.70;99.90;;;;;;5035133;28;20287;-90
2023/08/30 05:31:29;;;;;;;6.17;5.03;;;12.70;99.90;;;;;;5035066;28;20204;-91
2023/08/30 05:33:56;;;;;;;6.40;4.60;;;12.90;99.90;;;;;;5035079;28;20688;-90
2023/08/30 05:36:23;;;;;;;6.77;4.57;;;13.10;99.90;;;;;;5034595;28;20211;-90
2023/08/30 05:38:50;;;;;;;6.80;5.43;;;13.20;99.90;;;;;;5023836;28;20213;-89
2023/08/30 05:41:19;;;;;;;14.20;5.57;;;13.20;99.90;;;;;;5015163;28;20228;-90
2023/08/30 05:43:46;;;;;;;8.50;5.13;;;13.30;99.90;;;;;;5015361;28;20204;-90
2023/08/30 05:46:16;;;;;;;5.80;5.20;;;13.40;99.90;;;;;;5014598;28;20212;-90
2023/08/30 05:48:45;;;;;;;6.63;4.90;;;13.50;99.90;;;;;;5015666;28;20255;-90
2023/08/30 05:51:16;;;;;;;6.67;4.90;;;13.50;99.90;;;;;;5042803;28;20594;-90
2023/08/30 05:53:43;;;;;;;5.17;4.67;;;13.70;99.90;;;;;;5052676;28;20209;-90
2023/08/30 05:56:22;;;;;;;5.23;4.73;;;13.60;99.90;;;;;;5054728;28;20214;-90
2023/08/30 05:58:51;;;;;;;5.97;4.87;;;13.60;99.90;;;;;;5054458;28;20226;-90
2023/08/30 06:01:24;;;;;;;6.93;4.57;;;13.70;99.90;;;;;;5054072;28;20276;-90
2023/08/30 06:03:54;;;;;;;5.60;5.00;;;13.70;99.90;;;;;;5054330;28;20213;-90
2023/08/30 06:06:23;;;;;;;6.07;4.60;;;13.80;99.90;;;;;;5042015;28;20246;-90
2023/08/30 06:08:51;;;;;;;6.90;4.80;;;13.90;99.90;;;;;;5034495;28;20251;-90
2023/08/30 06:11:21;;;;;;;6.73;4.83;;;14.00;99.90;;;;;;5033153;28;20199;-89
2023/08/30 06:13:50;;;;;;;8.67;5.00;;;14.20;99.90;;;;;;5033518;28;20242;-90
2023/08/30 06:16:30;;;;;;;6.83;5.43;;;14.20;99.90;;;;;;5034476;28;20604;-90
2023/08/30 06:19:05;;;;;;;9.63;5.83;;;14.20;99.90;;;;;;5034686;28;20608;-89
2023/08/30 06:21:32;;;;;;;9.50;5.90;;;14.30;99.90;;;;;;5033772;28;20223;-89
2023/08/30 06:24:00;;;;;;;7.03;5.60;;;14.40;99.90;;;;;;5032713;28;20298;-90
2023/08/30 06:26:27;;;;;;;6.50;5.82;;;14.40;99.90;;;;;;5041079;28;20600;-87
2023/08/30 06:28:57;;;;;;;6.57;5.55;;;14.40;99.90;;;;;;5032088;28;20266;-88
2023/08/30 06:31:27;;;;;;;7.87;5.57;;;14.40;99.90;;;;;;5037418;28;20267;-86
2023/08/30 06:34:00;;;;;;;8.67;6.23;;;14.30;99.90;;;;;;5033359;28;20207;-90
2023/08/30 06:36:39;;;;;;;6.80;5.90;;;14.40;99.90;;;;;;5031052;28;20261;-90
2023/08/30 06:39:06;;;;;;;9.43;6.22;;;14.70;99.90;;;;;;5026542;28;20219;-90
2023/08/30 06:41:35;;;;;;;9.02;5.93;;;14.80;99.90;;;;;;5032681;28;20228;-91
2023/08/30 06:44:03;;;;;;;8.60;6.28;;;14.90;99.90;;;;;;5036998;28;20207;-91
2023/08/30 06:46:30;;;;;;;7.25;6.10;;;14.90;99.90;;;;;;5045391;28;20666;-90
2023/08/30 06:49:02;;;;;;;8.15;5.55;;;15.00;99.90;;;;;;5053583;28;20257;-90
2023/08/30 06:51:40;;;;;;;6.97;5.85;;;15.10;99.90;;;;;;5053574;28;20625;-90
2023/08/30 06:54:09;;;;;;;7.20;5.88;;;15.20;99.90;;;;;;5053950;28;20672;-90
2023/08/30 06:56:39;;;;;;;6.50;5.18;;;15.20;99.90;;;;;;5039061;28;20203;-90
2023/08/30 06:59:08;;;;;;;6.38;5.03;;;15.40;99.90;;;;;;5013821;28;20256;-90
2023/08/30 07:01:39;;;;;;;6.78;5.22;;;15.30;99.90;;;;;;5014353;28;20221;-90
2023/08/30 07:04:10;;;;;;;5.95;5.30;;;15.40;99.90;;;;;;5023023;28;20214;-90
2023/08/30 07:06:47;;;;;;;6.32;5.07;;;15.30;99.90;;;;;;5045458;28;20243;-91
2023/08/30 07:09:19;;;;;;;6.10;5.50;;;15.30;99.90;;;;;;5033500;28;20215;-90
2023/08/30 07:11:51;;;;;;;6.93;5.80;;;15.40;99.90;;;;;;5049853;28;20211;-91
2023/08/30 07:14:18;;;;;;;6.15;5.07;;;15.50;99.90;;;;;;5053225;28;20199;-90
2023/08/30 07:16:57;;;;;;;6.15;5.45;;;15.50;99.90;;;;;;5053487;28;20206;-90
2023/08/30 07:19:26;;;;;;;9.90;5.72;;;15.60;99.90;;;;;;5053588;28;20272;-91
2023/08/30 07:21:56;;;;;;;10.27;6.53;;;15.70;99.90;;;;;;5053553;28;20219;-90
2023/08/30 07:24:26;;;;;;;9.35;5.40;;;15.70;99.90;;;;;;5050556;28;20211;-91
2023/08/30 07:27:05;;;;;;;7.82;5.78;;;15.90;99.90;;;;;;5037026;28;20207;-91
2023/08/30 07:29:40;;;;;;;7.85;5.95;;;15.90;99.90;;;;;;5024068;28;20235;-90
2023/08/30 07:32:09;;;;;;;6.72;5.90;;;16.00;99.90;;;;;;5038949;28;20215;-91
2023/08/30 07:34:36;;;;;;;5.97;5.30;;;15.90;99.90;;;;;;5050177;28;20253;-90
2023/08/30 07:37:06;;;;;;;6.18;5.57;;;16.10;99.90;;;;;;5056318;28;20286;-91
2023/08/30 07:39:33;;;;;;;7.07;5.45;;;16.50;99.90;;;;;;5056268;28;20313;-91
2023/08/30 07:42:02;;;;;;;6.32;5.25;;;16.60;99.90;;;;;;5056250;28;20219;-90
2023/08/30 07:44:31;;;;;;;6.63;5.53;;;16.50;99.90;;;;;;5049690;28;20731;-91
2023/08/30 07:47:01;;;;;;;9.98;6.30;;;16.60;99.90;;;;;;5035987;28;20664;-90
2023/08/30 07:49:34;;;;;;;9.55;6.10;;;16.60;99.90;;;;;;5039098;28;20230;-91
2023/08/30 07:52:13;;;;;;;6.80;6.03;;;16.70;99.90;;;;;;5038029;28;20219;-87
2023/08/30 07:54:49;;;;;;;7.60;5.85;;;16.60;99.90;;;;;;5043764;28;20207;-91
2023/08/30 07:57:23;;;;;;;7.78;6.07;;;16.60;99.90;;;;;;5058113;28;20209;-90
2023/08/30 07:59:58;;;;;;;9.18;6.00;;;16.60;99.90;;;;;;5057404;28;20236;-91
2023/08/30 08:02:28;;;;;;;9.65;6.43;;;16.70;99.90;;;;;;5051654;28;20233;-89
2023/08/30 08:05:06;;;;;;;7.72;6.03;;;16.70;99.90;;;;;;5038018;28;20583;-88
2023/08/30 08:07:39;;;;;;;7.82;6.25;;;16.80;99.90;;;;;;5037840;28;20333;-91
2023/08/30 08:10:10;;;;;;;9.57;6.55;;;16.80;99.90;;;;;;5036446;28;20227;-88
2023/08/30 08:12:43;;;;;;;8.13;6.50;;;16.80;99.90;;;;;;5021093;28;20263;-89
2023/08/30 08:15:14;;;;;;;9.45;6.53;;;16.90;99.90;;;;;;5017619;28;20594;-89
2023/08/30 08:17:45;;;;;;;11.95;6.43;;;17.00;99.90;;;;;;5017937;28;20235;-89
2023/08/30 08:20:21;;;;;;;8.45;5.88;;;17.00;99.90;;;;;;5017355;28;20228;-89
2023/08/30 08:22:51;;;;;;;8.32;5.40;;;17.00;99.90;;;;;;5016690;28;20228;-89
2023/08/30 08:25:29;;;;;;;7.30;5.30;;;17.20;99.90;;;;;;5041601;28;20217;-88
2023/08/30 08:28:04;;;;;;;9.15;5.82;;;17.30;99.90;;;;;;5038601;28;20519;-88
2023/08/30 08:30:37;;;;;;;9.57;5.63;;;17.30;99.90;;;;;;5034955;28;20247;-90
2023/08/30 08:33:11;;;;;;;6.88;5.20;;;17.30;99.90;;;;;;5035720;28;20196;-89
2023/08/30 08:35:39;;;;;;;9.23;5.90;;;17.50;99.90;;;;;;5034740;28;20551;-89
2023/08/30 08:38:32;;;;;;;9.15;5.47;;;17.60;99.90;;;;;;5036339;28;20208;-89
2023/08/30 08:41:08;;;;;;;8.85;5.60;;;17.70;99.90;;;;;;5036190;28;20561;-90
2023/08/30 08:43:40;;;;;;;8.85;5.78;;;17.70;99.90;;;;;;5035889;28;20211;-89
2023/08/30 08:46:12;;;;;;;8.07;5.20;;;17.90;99.90;;;;;;5035755;28;20236;-90
2023/08/30 08:48:49;;;;;;;8.82;6.28;;;18.00;99.90;;;;;;5035860;28;20234;-89
2023/08/30 08:51:18;;;;;;;10.02;7.20;;;17.80;99.90;;;;;;5036103;28;20209;-89
2023/08/30 08:53:47;;;;;;;10.55;6.65;;;17.80;99.90;;;;;;5035617;28;20290;-88
2023/08/30 08:56:17;;;;;;;10.23;7.22;;;17.70;99.90;;;;;;5036702;28;20231;-88
2023/08/30 08:58:52;;;;;;;10.48;7.75;;;17.80;99.90;;;;;;5035823;28;20231;-88
2023/08/30 09:01:29;;;;;;;10.27;7.25;;;17.70;99.90;;;;;;5035875;28;20207;-89
2023/08/30 09:04:00;;;;;;;12.48;7.97;;;18.10;99.90;;;;;;5035865;28;20648;-89
2023/08/30 09:06:43;;;;;;;11.77;9.05;;;18.00;99.90;;;;;;5035897;28;20246;-89
2023/08/30 09:09:14;;;;;;;14.85;10.13;;;18.00;99.90;;;;;;5035431;28;20642;-88
2023/08/30 09:11:42;;;;;;;11.90;8.90;;;18.00;99.90;;;;;;5035796;28;20227;-88
2023/08/30 09:14:10;;;;;;;13.40;9.30;;;18.10;99.90;;;;;;5035442;28;20274;-89
2023/08/30 09:16:37;;;;;;;12.02;8.30;;;18.10;99.90;;;;;;5035525;28;20203;-89
2023/08/30 09:19:07;;;;;;;11.88;8.52;;;18.40;99.90;;;;;;5035258;28;20257;-89
2023/08/30 09:21:34;;;;;;;11.70;8.07;;;18.30;99.90;;;;;;5035202;28;20684;-88
2023/08/30 09:24:02;;;;;;;11.50;8.73;;;18.30;99.90;;;;;;5035275;28;20232;-88
2023/08/30 09:26:38;;;;;;;11.15;8.73;;;18.80;99.90;;;;;;5035423;28;20227;-89
2023/08/30 09:29:12;;;;;;;10.75;8.25;;;18.90;99.90;;;;;;5034865;28;20242;-90
2023/08/30 09:31:41;;;;;;;10.55;8.13;;;19.10;99.90;;;;;;5035290;28;20199;-89
2023/08/30 09:34:19;;;;;;;13.73;9.02;;;19.10;99.90;;;;;;5036413;28;20203;-89
2023/08/30 09:36:50;;;;;;;11.95;8.68;;;19.50;99.90;;;;;;5035368;28;20242;-90
2023/08/30 09:39:19;;;;;;;11.85;8.57;;;19.70;99.90;;;;;;5035052;28;20263;-90
2023/08/30 09:41:50;;;;;;;10.60;7.85;;;20.00;99.90;;;;;;5034858;28;20223;-89
2023/08/30 09:44:21;;;;;;;11.38;7.97;;;19.70;99.90;;;;;;5034907;28;20223;-90
2023/08/30 09:46:51;;;;;;;10.40;7.95;;;20.00;99.90;;;;;;5034941;28;20623;-89
2023/08/30 09:49:20;;;;;;;11.40;7.25;;;19.60;99.90;;;;;;5034364;28;20650;-89
2023/08/30 09:51:48;;;;;;;10.13;7.55;;;19.90;99.90;;;;;;5034512;28;20204;-89
2023/08/30 09:54:17;;;;;;;12.75;9.40;;;20.20;99.90;;;;;;5034836;28;20207;-89
2023/08/30 09:56:46;;;;;;;11.88;9.35;;;20.30;99.90;;;;;;5034347;28;20261;-89
2023/08/30 09:59:16;;;;;;;13.38;9.40;;;20.20;99.90;;;;;;5034086;28;20234;-89
2023/08/30 10:01:44;;;;;;;13.95;9.27;;;20.10;99.90;;;;;;5034546;28;20219;-89
2023/08/30 10:04:12;;;;;;;10.52;7.82;;;20.00;99.90;;;;;;5034548;28;20204;-89
2023/08/30 10:06:39;;;;;;;10.40;7.50;;;20.40;99.90;;;;;;5034392;28;20218;-90
2023/08/30 10:09:09;;;;;;;10.45;7.70;;;20.80;99.90;;;;;;5034509;28;20658;-89
2023/08/30 10:11:42;;;;;;;10.50;8.30;;;20.80;99.90;;;;;;5033938;28;20196;-89
2023/08/30 10:14:13;;;;;;;12.20;8.63;;;21.10;99.90;;;;;;5034305;28;20650;-90
2023/08/30 10:16:45;;;;;;;12.68;9.00;;;21.20;99.90;;;;;;5034246;28;20208;-90
2023/08/30 10:19:15;;;;;;;11.23;8.85;;;21.50;99.90;;;;;;5034250;28;20258;-91
2023/08/30 10:21:48;;;;;;;10.48;7.75;;;21.10;99.90;;;;;;5034121;28;20211;-90
2023/08/30 10:24:34;;;;;;;11.07;7.70;;;21.40;99.90;;;;;;5032141;28;20709;-90
2023/08/30 10:27:13;;;;;;;10.27;7.85;;;21.30;99.90;;;;;;5032740;28;20211;-89
2023/08/30 10:29:41;;;;;;;9.85;8.07;;;21.30;99.90;;;;;;5044350;28;20326;-90
2023/08/30 10:32:10;;;;;;;9.40;7.25;;;20.70;99.90;;;;;;5030003;28;20291;-89
2023/08/30 10:34:38;;;;;;;8.80;7.47;;;20.50;99.90;;;;;;5029704;28;20213;-89
2023/08/30 10:37:08;;;;;;;9.27;7.15;;;20.80;99.90;;;;;;5013567;28;20215;-90
2023/08/30 10:39:51;;;;;;;8.98;6.95;;;21.10;99.90;;;;;;5025256;28;20219;-90
2023/08/30 10:42:22;;;;;;;11.07;7.10;;;21.30;99.90;;;;;;5019941;28;20262;-90
2023/08/30 10:44:53;;;;;;;9.48;6.60;;;21.30;99.90;;;;;;5040355;28;20206;-89
2023/08/30 10:47:30;;;;;;;9.05;6.97;;;21.20;99.90;;;;;;5054659;28;20283;-89
2023/08/30 10:50:07;;;;;;;8.45;6.60;;;21.30;99.90;;;;;;5053722;28;20245;-90
2023/08/30 10:52:41;;;;;;;7.53;5.78;;;21.20;99.90;;;;;;5052082;28;20579;-89
2023/08/30 10:55:08;;;;;;;7.47;5.85;;;21.60;99.90;;;;;;5053533;28;20207;-89
2023/08/30 10:57:41;;;;;;;10.50;7.10;;;21.80;99.90;;;;;;5053332;28;20211;-90
2023/08/30 11:00:22;;;;;;;10.70;7.25;;;21.50;99.90;;;;;;5052218;28;20231;-89
2023/08/30 11:02:53;;;;;;;8.50;7.25;;;21.30;99.90;;;;;;5053016;28;20580;-90
2023/08/30 11:05:28;;;;;;;7.55;6.43;;;21.30;99.90;;;;;;5033802;28;20212;-89
2023/08/30 11:07:55;;;;;;;6.63;5.95;;;21.10;99.90;;;;;;5032946;28;20245;-89
2023/08/30 11:10:23;;;;;;;9.52;6.05;;;21.20;99.90;;;;;;5035486;28;20219;-90
2023/08/30 11:12:51;;;;;;;8.25;6.15;;;21.40;99.90;;;;;;5044851;28;20274;-89
2023/08/30 11:15:18;;;;;;;12.48;7.70;;;21.40;99.90;;;;;;5053490;28;20214;-90
2023/08/30 11:17:46;;;;;;;7.80;6.32;;;21.30;99.90;;;;;;5053048;28;20282;-90
2023/08/30 11:20:19;;;;;;;9.52;7.47;;;21.00;99.90;;;;;;5052635;28;20231;-88
2023/08/30 11:22:53;;;;;;;10.20;8.40;;;20.80;99.90;;;;;;5053260;28;20231;-89
2023/08/30 11:25:20;;;;;;;12.10;8.15;;;20.50;99.90;;;;;;5036445;28;20215;-89
2023/08/30 11:27:52;;;;;;;7.80;6.78;;;20.50;99.90;;;;;;5033003;28;20272;-89
2023/08/30 11:30:20;;;;;;;7.53;5.80;;;20.70;99.90;;;;;;5032670;28;20231;-90
2023/08/30 11:32:54;;;;;;;10.48;7.88;;;20.50;99.90;;;;;;5033661;28;20616;-89
2023/08/30 11:35:29;;;;;;;8.57;6.15;;;20.20;99.90;;;;;;5033997;28;20261;-89
2023/08/30 11:38:14;;;;;;;9.88;7.68;;;20.10;99.90;;;;;;5032862;28;20210;-90
2023/08/30 11:40:44;;;;;;;11.43;8.15;;;20.30;99.90;;;;;;5032960;28;20306;-89
2023/08/30 11:43:24;;;;;;;8.07;6.70;;;20.00;99.90;;;;;;5046701;28;20227;-89
2023/08/30 11:45:57;;;;;;;12.23;7.75;;;20.00;99.90;;;;;;5037992;28;20199;-88
2023/08/30 11:48:24;;;;;;;9.55;7.10;;;20.10;99.90;;;;;;5032631;28;20231;-89
2023/08/30 11:50:59;;;;;;;7.65;6.05;;;20.00;99.90;;;;;;5047163;28;20218;-89
2023/08/30 11:53:35;;;;;;;8.27;6.80;;;20.20;99.90;;;;;;5052737;28;20241;-90
2023/08/30 11:56:08;;;;;;;10.10;7.18;;;20.00;99.90;;;;;;5052192;28;20216;-89
2023/08/30 11:58:46;;;;;;;10.07;6.43;;;20.10;99.90;;;;;;5051086;28;20210;-89
2023/08/30 12:01:32;;;;;;;13.35;7.03;;;19.90;99.90;;;;;;5040247;28;20227;-89
2023/08/30 12:04:08;;;;;;;10.57;6.90;;;19.90;99.90;;;;;;5032265;28;20715;-89
2023/08/30 12:06:37;;;;;;;10.07;6.47;;;20.00;99.90;;;;;;5024323;28;20210;-89
2023/08/30 12:09:07;;;;;;;8.23;6.25;;;20.10;99.90;;;;;;5032627;28;20216;-89
2023/08/30 12:11:34;;;;;;;10.38;7.43;;;20.70;99.90;;;;;;5035802;28;20206;-89
2023/08/30 12:14:05;;;;;;;8.90;6.68;;;21.20;99.90;;;;;;5035509;28;20665;-90
2023/08/30 12:16:32;;;;;;;8.65;6.30;;;21.30;99.90;;;;;;5049515;28;20195;-89
2023/08/30 12:19:09;;;;;;;8.20;6.68;;;21.50;99.90;;;;;;5051409;28;20204;-89
2023/08/30 12:21:42;;;;;;;9.50;5.60;;;21.90;99.90;;;;;;5028954;28;20214;-89
2023/08/30 12:24:12;;;;;;;7.30;5.95;;;22.10;99.90;;;;;;5029649;28;20227;-89
2023/08/30 12:26:39;;;;;;;10.15;6.43;;;22.10;99.90;;;;;;5033346;28;20611;-88
2023/08/30 12:29:06;;;;;;;7.53;6.40;;;22.10;99.90;;;;;;5030202;28;20244;-90
2023/08/30 12:31:33;;;;;;;8.05;6.45;;;21.60;99.90;;;;;;5032801;28;20263;-89
2023/08/30 12:34:03;;;;;;;7.70;6.43;;;21.60;99.90;;;;;;5037806;28;20200;-89
2023/08/30 12:36:34;;;;;;;7.43;5.63;;;21.90;99.90;;;;;;5040631;28;20199;-91
2023/08/30 12:39:06;;;;;;;6.75;5.15;;;22.50;99.90;;;;;;5050609;28;20293;-90
2023/08/30 12:41:39;;;;;;;7.47;6.03;;;22.90;99.90;;;;;;5037025;28;20294;-89
2023/08/30 12:44:08;;;;;;;9.05;6.50;;;22.80;99.90;;;;;;5032780;28;20227;-89
2023/08/30 12:46:47;;;;;;;6.53;5.60;;;22.90;99.90;;;;;;5035985;28;20258;-90
2023/08/30 12:49:26;;;;;;;7.07;5.75;;;23.30;99.90;;;;;;5029952;28;20230;-90
2023/08/30 12:51:58;;;;;;;6.45;5.55;;;23.60;99.90;;;;;;5036223;28;20217;-90
2023/08/30 12:54:30;;;;;;;9.00;6.75;;;23.30;99.90;;;;;;5037507;28;20207;-90
2023/08/30 12:57:02;;;;;;;6.75;6.05;;;23.60;99.90;;;;;;5047391;28;20253;-90
2023/08/30 12:59:58;;;;;;;6.15;5.55;;;23.60;99.90;;;;;;5026727;28;20222;-90
2023/08/30 13:02:32;;;;;;;5.32;4.82;;;23.60;99.90;;;;;;5029104;28;20207;-90
2023/08/30 13:05:09;;;;;;;7.70;5.00;;;23.50;99.90;;;;;;5034177;28;20208;-90